createdAt,value
2019-01-05T00:00:05.353Z,3.97
2019-01-05T00:01:05.504Z,4.00
2019-01-05T00:02:05.647Z,3.94
2019-01-05T00:03:05.789Z,3.94
2019-01-05T00:04:05.935Z,4.07
2019-01-05T00:05:06.080Z,4.03
2019-01-05T00:06:06.224Z,3.90
2019-01-05T00:07:06.367Z,4.03
2019-01-05T00:08:06.514Z,4.03
2019-01-05T00:09:06.657Z,3.86
2019-01-05T00:10:06.802Z,3.88
2019-01-05T00:11:06.946Z,3.90
2019-01-05T00:12:07.091Z,3.92
2019-01-05T00:13:07.238Z,4.00
2019-01-05T00:14:07.382Z,3.86
2019-01-05T00:15:07.525Z,4.00
2019-01-05T00:16:07.671Z,3.94
2019-01-05T00:17:07.816Z,3.98
2019-01-05T00:18:07.961Z,3.97
2019-01-05T00:19:08.107Z,4.00
2019-01-05T00:20:08.249Z,3.90
2019-01-05T00:21:08.395Z,3.98
2019-01-05T00:22:08.568Z,3.89
2019-01-05T00:23:08.714Z,3.98
2019-01-05T00:24:08.856Z,3.96
2019-01-05T00:25:08.999Z,3.88
2019-01-05T00:26:09.143Z,3.92
2019-01-05T00:27:09.286Z,4.03
2019-01-05T00:28:09.432Z,3.97
2019-01-05T00:29:09.575Z,4.07
2019-01-05T00:30:09.719Z,3.92
2019-01-05T00:31:09.860Z,3.94
2019-01-05T00:32:10.004Z,4.04
2019-01-05T00:33:10.149Z,4.06
2019-01-05T00:34:10.297Z,4.01
2019-01-05T00:35:10.438Z,3.97
2019-01-05T00:36:10.618Z,4.06
2019-01-05T00:37:10.726Z,4.04
2019-01-05T00:38:10.869Z,3.88
2019-01-05T00:39:11.011Z,4.07
2019-01-05T00:40:16.938Z,4.01
2019-01-05T00:41:11.303Z,3.92
2019-01-05T00:42:11.444Z,4.07
2019-01-05T00:43:11.589Z,4.01
2019-01-05T00:44:11.732Z,3.94
2019-01-05T00:45:11.879Z,4.01
2019-01-05T00:46:12.019Z,3.90
2019-01-05T00:47:12.166Z,3.92
2019-01-05T00:48:12.310Z,3.96
2019-01-05T00:49:12.453Z,3.92
2019-01-05T00:50:12.597Z,3.98
2019-01-05T00:51:12.742Z,3.90
2019-01-05T00:52:12.883Z,3.96
2019-01-05T00:53:13.031Z,3.98
2019-01-05T00:54:13.173Z,4.07
2019-01-05T00:55:13.319Z,3.97
2019-01-05T00:56:13.462Z,3.96
2019-01-05T00:57:13.609Z,4.06
2019-01-05T00:58:13.752Z,4.03
2019-01-05T00:59:13.899Z,4.08
2019-01-05T01:00:14.037Z,4.03
2019-01-05T01:01:14.182Z,4.03
2019-01-05T01:02:14.324Z,4.03
2019-01-05T01:03:14.470Z,3.98
2019-01-05T01:04:14.615Z,3.97
2019-01-05T01:05:14.757Z,4.07
2019-01-05T01:06:14.899Z,4.04
2019-01-05T01:07:15.042Z,4.06
2019-01-05T01:08:15.187Z,4.10
2019-01-05T01:09:15.330Z,3.98
2019-01-05T01:10:15.474Z,4.08
2019-01-05T01:11:15.620Z,4.06
2019-01-05T01:12:15.765Z,4.06
2019-01-05T01:13:15.907Z,4.15
2019-01-05T01:14:16.052Z,4.08
2019-01-05T01:15:16.195Z,4.14
2019-01-05T01:16:16.339Z,4.14
2019-01-05T01:17:16.485Z,4.12
2019-01-05T01:18:16.627Z,4.08
2019-01-05T01:19:16.772Z,4.18
2019-01-05T01:20:16.919Z,4.24
2019-01-05T01:21:17.061Z,4.19
2019-01-05T01:22:17.212Z,4.14
2019-01-05T01:23:17.348Z,4.25
2019-01-05T01:24:17.491Z,4.26
2019-01-05T01:25:17.636Z,4.21
2019-01-05T01:26:17.781Z,4.24
2019-01-05T01:27:17.929Z,4.32
2019-01-05T01:28:18.067Z,4.29
2019-01-05T01:29:18.214Z,4.25
2019-01-05T01:30:18.357Z,4.32
2019-01-05T01:31:18.507Z,4.36
2019-01-05T01:32:18.643Z,4.32
2019-01-05T01:33:18.789Z,4.36
2019-01-05T01:34:18.931Z,4.39
2019-01-05T01:35:19.080Z,4.36
2019-01-05T01:36:19.221Z,4.36
2019-01-05T01:37:19.365Z,4.42
2019-01-05T01:38:19.512Z,4.37
2019-01-05T01:39:19.653Z,4.44
2019-01-05T01:40:19.797Z,4.40
2019-01-05T01:41:19.939Z,4.39
2019-01-05T01:42:20.085Z,4.44
2019-01-05T01:43:20.228Z,4.40
2019-01-05T01:44:20.371Z,4.46
2019-01-05T01:45:20.519Z,4.39
2019-01-05T01:46:20.660Z,4.39
2019-01-05T01:47:20.805Z,4.39
2019-01-05T01:48:20.948Z,4.40
2019-01-05T01:49:21.091Z,4.34
2019-01-05T01:50:21.237Z,4.36
2019-01-05T01:51:21.382Z,4.36
2019-01-05T01:52:21.525Z,4.42
2019-01-05T01:53:21.666Z,4.44
2019-01-05T01:54:21.811Z,4.42
2019-01-05T01:55:21.952Z,4.43
2019-01-05T01:56:22.101Z,4.42
2019-01-05T01:57:22.241Z,4.36
2019-01-05T01:58:22.385Z,4.42
2019-01-05T01:59:22.529Z,4.33
2019-01-05T02:00:22.672Z,4.36
2019-01-05T02:01:22.816Z,4.33
2019-01-05T02:02:22.961Z,4.40
2019-01-05T02:03:23.107Z,4.37
2019-01-05T02:04:23.250Z,4.29
2019-01-05T02:05:23.395Z,4.39
2019-01-05T02:06:23.541Z,4.39
2019-01-05T02:07:23.684Z,4.40
2019-01-05T02:08:23.828Z,4.39
2019-01-05T02:09:23.972Z,4.34
2019-01-05T02:10:24.115Z,4.28
2019-01-05T02:11:24.259Z,4.36
2019-01-05T02:12:24.405Z,4.34
2019-01-05T02:13:24.551Z,4.26
2019-01-05T02:14:24.692Z,4.36
2019-01-05T02:15:24.834Z,4.32
2019-01-05T02:16:24.979Z,4.34
2019-01-05T02:17:25.122Z,4.34
2019-01-05T02:18:25.270Z,4.32
2019-01-05T02:19:25.413Z,4.37
2019-01-05T02:20:25.557Z,4.29
2019-01-05T02:21:25.701Z,4.26
2019-01-05T02:22:25.845Z,4.24
2019-01-05T02:23:25.991Z,4.26
2019-01-05T02:24:26.135Z,4.26
2019-01-05T02:25:26.282Z,4.24
2019-01-05T02:26:26.421Z,4.22
2019-01-05T02:27:26.566Z,4.14
2019-01-05T02:28:26.710Z,4.25
2019-01-05T02:29:26.853Z,4.25
2019-01-05T02:30:26.999Z,4.26
2019-01-05T02:31:27.140Z,4.28
2019-01-05T02:32:27.287Z,4.32
2019-01-05T02:33:27.431Z,4.29
2019-01-05T02:34:27.573Z,4.28
2019-01-05T02:35:27.724Z,4.34
2019-01-05T02:36:27.861Z,4.15
2019-01-05T02:37:28.003Z,4.32
2019-01-05T02:38:28.148Z,4.16
2019-01-05T02:39:28.297Z,4.16
2019-01-05T02:40:28.439Z,4.26
2019-01-05T02:41:28.580Z,4.26
2019-01-05T02:42:28.721Z,4.18
2019-01-05T02:43:28.869Z,4.28
2019-01-05T02:44:29.011Z,4.22
2019-01-05T02:45:29.162Z,4.26
2019-01-05T02:46:29.302Z,4.28
2019-01-05T02:47:29.447Z,4.26
2019-01-05T02:48:29.593Z,4.19
2019-01-05T02:49:29.734Z,4.28
2019-01-05T02:50:29.878Z,4.32
2019-01-05T02:51:30.023Z,4.24
2019-01-05T02:52:30.167Z,4.33
2019-01-05T02:53:30.309Z,4.29
2019-01-05T02:54:30.453Z,4.32
2019-01-05T02:55:30.596Z,4.32
2019-01-05T02:56:30.743Z,4.29
2019-01-05T02:57:30.885Z,4.29
2019-01-05T02:58:31.029Z,4.28
2019-01-05T02:59:31.172Z,4.36
2019-01-05T03:00:31.317Z,4.34
2019-01-05T03:01:31.461Z,4.37
2019-01-05T03:02:31.603Z,4.26
2019-01-05T03:03:31.748Z,4.40
2019-01-05T03:04:31.892Z,4.26
2019-01-05T03:05:32.036Z,4.36
2019-01-05T03:06:32.180Z,4.34
2019-01-05T03:07:32.326Z,4.34
2019-01-05T03:08:32.469Z,4.32
2019-01-05T03:09:32.613Z,4.36
2019-01-05T03:10:32.767Z,4.40
2019-01-05T03:11:32.902Z,4.40
2019-01-05T03:12:33.048Z,4.40
2019-01-05T03:13:33.194Z,4.34
2019-01-05T03:14:33.333Z,4.42
2019-01-05T03:15:33.480Z,4.36
2019-01-05T03:16:33.625Z,4.40
2019-01-05T03:17:33.770Z,4.29
2019-01-05T03:18:33.914Z,4.37
2019-01-05T03:19:34.059Z,4.32
2019-01-05T03:20:34.203Z,4.33
2019-01-05T03:21:34.350Z,4.29
2019-01-05T03:22:34.492Z,4.36
2019-01-05T03:23:34.637Z,4.28
2019-01-05T03:24:34.784Z,4.29
2019-01-05T03:25:34.926Z,4.28
2019-01-05T03:26:35.078Z,4.32
2019-01-05T03:27:35.214Z,4.28
2019-01-05T03:28:35.370Z,4.22
2019-01-05T03:29:35.500Z,4.37
2019-01-05T03:30:35.648Z,4.29
2019-01-05T03:31:35.789Z,4.42
2019-01-05T03:32:35.937Z,4.39
2019-01-05T03:33:36.076Z,4.37
2019-01-05T03:34:36.218Z,4.33
2019-01-05T03:35:36.363Z,4.28
2019-01-05T03:36:36.510Z,4.32
2019-01-05T03:37:36.653Z,4.22
2019-01-05T03:38:36.798Z,4.28
2019-01-05T03:39:36.943Z,4.26
2019-01-05T03:40:37.099Z,4.29
2019-01-05T03:41:37.237Z,4.24
2019-01-05T03:42:37.380Z,4.26
2019-01-05T03:43:37.521Z,4.22
2019-01-05T03:44:37.664Z,4.22
2019-01-05T03:45:37.807Z,4.18
2019-01-05T03:46:37.952Z,4.24
2019-01-05T03:47:38.098Z,4.29
2019-01-05T03:48:38.242Z,4.19
2019-01-05T03:49:38.386Z,4.25
2019-01-05T03:50:38.530Z,4.19
2019-01-05T03:51:38.706Z,4.16
2019-01-05T03:52:38.852Z,4.28
2019-01-05T03:53:38.997Z,4.16
2019-01-05T03:54:39.139Z,4.18
2019-01-05T03:55:39.286Z,4.22
2019-01-05T03:56:39.428Z,4.24
2019-01-05T03:57:39.584Z,4.18
2019-01-05T03:58:39.746Z,4.15
2019-01-05T03:59:39.891Z,4.15
2019-01-05T04:00:40.035Z,4.12
2019-01-05T04:01:40.180Z,4.14
2019-01-05T04:02:40.323Z,4.15
2019-01-05T04:03:40.471Z,4.15
2019-01-05T04:04:40.612Z,4.16
2019-01-05T04:05:40.757Z,4.21
2019-01-05T04:06:40.902Z,4.10
2019-01-05T04:07:41.043Z,4.08
2019-01-05T04:08:41.189Z,4.14
2019-01-05T04:09:41.337Z,4.15
2019-01-05T04:10:41.479Z,4.10
2019-01-05T04:11:41.622Z,4.24
2019-01-05T04:12:41.766Z,4.18
2019-01-05T04:13:41.912Z,4.10
2019-01-05T04:14:42.058Z,4.16
2019-01-05T04:15:42.203Z,4.16
2019-01-05T04:16:42.349Z,4.14
2019-01-05T04:17:42.491Z,4.16
2019-01-05T04:18:42.638Z,4.16
2019-01-05T04:19:42.782Z,4.14
2019-01-05T04:20:42.927Z,4.10
2019-01-05T04:21:43.072Z,4.16
2019-01-05T04:22:43.224Z,4.07
2019-01-05T04:23:43.368Z,4.16
2019-01-05T04:24:43.507Z,4.06
2019-01-05T04:25:43.648Z,4.10
2019-01-05T04:26:43.796Z,4.12
2019-01-05T04:27:43.936Z,4.14
2019-01-05T04:28:44.079Z,3.98
2019-01-05T04:29:44.224Z,4.12
2019-01-05T04:30:44.369Z,4.12
2019-01-05T04:31:44.513Z,4.14
2019-01-05T04:32:44.655Z,4.07
2019-01-05T04:33:44.800Z,4.15
2019-01-05T04:34:44.944Z,4.12
2019-01-05T04:35:45.089Z,4.19
2019-01-05T04:36:45.238Z,4.15
2019-01-05T04:37:45.383Z,4.21
2019-01-05T04:38:45.545Z,4.12
2019-01-05T04:39:45.701Z,4.15
2019-01-05T04:40:45.849Z,4.04
2019-01-05T04:41:45.990Z,4.10
2019-01-05T04:42:46.131Z,4.15
2019-01-05T04:43:46.276Z,4.12
2019-01-05T04:44:46.421Z,4.18
2019-01-05T04:45:46.566Z,4.24
2019-01-05T04:46:46.709Z,4.21
2019-01-05T04:47:46.853Z,4.32
2019-01-05T04:48:46.999Z,4.22
2019-01-05T04:49:47.146Z,4.15
2019-01-05T04:50:47.283Z,4.24
2019-01-05T04:51:47.428Z,4.21
2019-01-05T04:52:47.574Z,4.24
2019-01-05T04:53:47.720Z,4.28
2019-01-05T04:54:47.862Z,4.29
2019-01-05T04:55:48.005Z,4.32
2019-01-05T04:56:48.149Z,4.29
2019-01-05T04:57:48.293Z,4.25
2019-01-05T04:58:48.438Z,4.33
2019-01-05T04:59:48.581Z,4.32
2019-01-05T05:00:48.728Z,4.34
2019-01-05T05:01:48.884Z,4.32
2019-01-05T05:02:49.016Z,4.40
2019-01-05T05:03:49.159Z,4.32
2019-01-05T05:04:49.306Z,4.40
2019-01-05T05:05:49.452Z,4.34
2019-01-05T05:06:49.595Z,4.39
2019-01-05T05:07:49.736Z,4.42
2019-01-05T05:08:49.882Z,4.39
2019-01-05T05:09:50.025Z,4.36
2019-01-05T05:10:50.172Z,4.42
2019-01-05T05:11:50.313Z,4.44
2019-01-05T05:12:50.460Z,4.44
2019-01-05T05:13:50.604Z,4.42
2019-01-05T05:14:50.748Z,4.43
2019-01-05T05:15:50.894Z,4.43
2019-01-05T05:16:51.039Z,4.55
2019-01-05T05:17:51.182Z,4.54
2019-01-05T05:18:51.329Z,4.54
2019-01-05T05:19:51.472Z,4.40
2019-01-05T05:20:51.616Z,4.52
2019-01-05T05:21:51.761Z,4.52
2019-01-05T05:22:51.903Z,4.55
2019-01-05T05:23:52.049Z,4.58
2019-01-05T05:24:52.191Z,4.51
2019-01-05T05:25:52.338Z,4.50
2019-01-05T05:26:52.483Z,4.55
2019-01-05T05:27:52.627Z,4.43
2019-01-05T05:28:52.771Z,4.57
2019-01-05T05:29:52.915Z,4.55
2019-01-05T05:30:53.063Z,4.55
2019-01-05T05:31:53.211Z,4.51
2019-01-05T05:32:53.351Z,4.61
2019-01-05T05:33:53.495Z,4.59
2019-01-05T05:34:53.639Z,4.51
2019-01-05T05:35:53.785Z,4.64
2019-01-05T05:36:53.929Z,4.58
2019-01-05T05:37:54.074Z,4.54
2019-01-05T05:38:54.221Z,4.61
2019-01-05T05:39:54.367Z,4.59
2019-01-05T05:40:54.512Z,4.55
2019-01-05T05:41:54.657Z,4.52
2019-01-05T05:42:54.806Z,4.54
2019-01-05T05:43:54.947Z,4.61
2019-01-05T05:44:55.090Z,4.58
2019-01-05T05:45:55.234Z,4.55
2019-01-05T05:46:55.381Z,4.54
2019-01-05T05:47:55.528Z,4.72
2019-01-05T05:48:55.671Z,4.64
2019-01-05T05:49:55.817Z,4.57
2019-01-05T05:50:55.961Z,4.58
2019-01-05T05:51:56.109Z,4.62
2019-01-05T05:52:56.255Z,4.61
2019-01-05T05:53:56.444Z,4.59
2019-01-05T05:54:56.551Z,4.67
2019-01-05T05:55:56.682Z,4.65
2019-01-05T05:56:56.828Z,4.67
2019-01-05T05:57:56.972Z,4.76
2019-01-05T05:58:57.119Z,4.69
2019-01-05T05:59:57.263Z,4.75
2019-01-05T06:00:57.408Z,4.76
2019-01-05T06:01:57.552Z,4.73
2019-01-05T06:02:57.697Z,4.72
2019-01-05T06:03:57.841Z,4.75
2019-01-05T06:04:57.988Z,4.70
2019-01-05T06:05:58.132Z,4.70
2019-01-05T06:06:58.279Z,4.72
2019-01-05T06:07:58.425Z,4.75
2019-01-05T06:08:58.567Z,4.76
2019-01-05T06:09:58.711Z,4.77
2019-01-05T06:10:58.858Z,4.86
2019-01-05T06:11:59.002Z,4.77
2019-01-05T06:12:59.147Z,4.83
2019-01-05T06:13:59.290Z,4.77
2019-01-05T06:14:59.439Z,4.77
2019-01-05T06:15:59.583Z,4.79
2019-01-05T06:16:59.729Z,4.80
2019-01-05T06:17:59.873Z,4.80
2019-01-05T06:19:00.019Z,4.75
2019-01-05T06:20:00.236Z,4.75
2019-01-05T06:21:00.311Z,4.77
2019-01-05T06:22:00.473Z,4.75
2019-01-05T06:23:00.597Z,4.73
2019-01-05T06:24:00.742Z,4.75
2019-01-05T06:25:00.887Z,4.80
2019-01-05T06:26:01.031Z,4.80
2019-01-05T06:27:01.176Z,4.77
2019-01-05T06:28:01.321Z,4.76
2019-01-05T06:29:01.468Z,4.77
2019-01-05T06:30:01.616Z,4.80
2019-01-05T06:31:01.760Z,4.86
2019-01-05T06:32:01.913Z,4.84
2019-01-05T06:33:02.050Z,4.89
2019-01-05T06:34:02.194Z,4.80
2019-01-05T06:35:02.342Z,4.88
2019-01-05T06:36:02.483Z,4.83
2019-01-05T06:37:02.632Z,4.86
2019-01-05T06:38:02.773Z,4.89
2019-01-05T06:39:02.918Z,4.91
2019-01-05T06:40:03.063Z,4.86
2019-01-05T06:41:03.205Z,4.83
2019-01-05T06:42:03.352Z,4.86
2019-01-05T06:43:03.496Z,4.88
2019-01-05T06:44:03.643Z,4.89
2019-01-05T06:45:03.787Z,4.84
2019-01-05T06:46:03.932Z,4.88
2019-01-05T06:47:04.083Z,4.89
2019-01-05T06:48:04.229Z,4.91
2019-01-05T06:49:04.371Z,4.88
2019-01-05T06:50:04.517Z,4.91
2019-01-05T06:51:04.662Z,4.92
2019-01-05T06:52:04.810Z,4.91
2019-01-05T06:53:04.951Z,4.92
2019-01-05T06:54:05.098Z,4.94
2019-01-05T06:55:05.241Z,4.98
2019-01-05T06:56:05.389Z,4.91
2019-01-05T06:57:05.532Z,4.88
2019-01-05T06:58:05.676Z,4.94
2019-01-05T06:59:05.823Z,4.94
2019-01-05T07:00:05.972Z,4.95
2019-01-05T07:01:06.114Z,4.96
2019-01-05T07:02:06.258Z,4.99
2019-01-05T07:03:06.402Z,4.96
2019-01-05T07:04:06.549Z,4.98
2019-01-05T07:05:06.693Z,4.99
2019-01-05T07:06:06.840Z,4.98
2019-01-05T07:07:06.987Z,4.96
2019-01-05T07:08:07.139Z,5.02
2019-01-05T07:09:07.280Z,4.99
2019-01-05T07:10:07.427Z,5.04
2019-01-05T07:11:07.572Z,5.05
2019-01-05T07:12:07.714Z,5.05
2019-01-05T07:13:07.860Z,5.09
2019-01-05T07:14:08.005Z,4.96
2019-01-05T07:15:08.147Z,5.09
2019-01-05T07:16:08.293Z,5.09
2019-01-05T07:17:08.440Z,5.07
2019-01-05T07:18:08.584Z,5.13
2019-01-05T07:19:08.729Z,5.16
2019-01-05T07:20:08.872Z,5.13
2019-01-05T07:21:09.017Z,5.19
2019-01-05T07:22:09.164Z,5.16
2019-01-05T07:23:09.311Z,5.12
2019-01-05T07:24:09.454Z,5.13
2019-01-05T07:25:09.599Z,5.10
2019-01-05T07:26:09.749Z,5.14
2019-01-05T07:27:09.888Z,5.12
2019-01-05T07:28:10.032Z,5.20
2019-01-05T07:29:10.178Z,5.14
2019-01-05T07:30:10.326Z,5.19
2019-01-05T07:31:10.472Z,5.20
2019-01-05T07:32:10.617Z,5.17
2019-01-05T07:33:10.761Z,5.14
2019-01-05T07:34:10.904Z,5.14
2019-01-05T07:35:11.053Z,5.22
2019-01-05T07:36:11.194Z,5.31
2019-01-05T07:37:11.342Z,5.22
2019-01-05T07:38:11.490Z,5.19
2019-01-05T07:39:11.634Z,5.25
2019-01-05T07:40:11.779Z,5.19
2019-01-05T07:41:11.922Z,5.25
2019-01-05T07:42:12.068Z,5.13
2019-01-05T07:43:12.217Z,5.23
2019-01-05T07:44:12.357Z,5.17
2019-01-05T07:45:12.501Z,5.22
2019-01-05T07:46:12.647Z,5.25
2019-01-05T07:47:12.794Z,5.19
2019-01-05T07:48:12.938Z,5.20
2019-01-05T07:49:13.083Z,5.20
2019-01-05T07:50:13.229Z,5.30
2019-01-05T07:51:13.375Z,5.25
2019-01-05T07:52:13.520Z,5.30
2019-01-05T07:53:13.665Z,5.28
2019-01-05T07:54:13.813Z,5.35
2019-01-05T07:55:13.956Z,5.34
2019-01-05T07:56:14.100Z,5.37
2019-01-05T07:57:14.247Z,5.35
2019-01-05T07:58:14.392Z,5.40
2019-01-05T07:59:14.538Z,5.43
2019-01-05T08:00:14.684Z,5.34
2019-01-05T08:01:14.831Z,5.37
2019-01-05T08:02:14.978Z,5.38
2019-01-05T08:03:15.122Z,5.46
2019-01-05T08:04:15.267Z,5.45
2019-01-05T08:05:15.412Z,5.37
2019-01-05T08:06:16.035Z,5.48
2019-01-05T08:07:15.703Z,5.49
2019-01-05T08:08:15.849Z,5.56
2019-01-05T08:09:15.995Z,5.50
2019-01-05T08:10:16.142Z,5.55
2019-01-05T08:11:16.287Z,5.55
2019-01-05T08:12:16.437Z,5.55
2019-01-05T08:13:16.578Z,5.56
2019-01-05T08:14:16.726Z,5.55
2019-01-05T08:15:16.872Z,5.60
2019-01-05T08:16:17.017Z,5.57
2019-01-05T08:17:17.165Z,5.55
2019-01-05T08:18:17.306Z,5.50
2019-01-05T08:19:17.453Z,5.53
2019-01-05T08:20:17.602Z,5.56
2019-01-05T08:21:17.745Z,5.56
2019-01-05T08:22:17.891Z,5.56
2019-01-05T08:23:18.036Z,5.57
2019-01-05T08:24:18.180Z,5.56
2019-01-05T08:25:18.326Z,5.55
2019-01-05T08:26:18.471Z,5.70
2019-01-05T08:27:18.614Z,5.70
2019-01-05T08:28:18.760Z,5.73
2019-01-05T08:29:18.907Z,5.73
2019-01-05T08:30:19.055Z,5.74
2019-01-05T08:31:19.207Z,5.81
2019-01-05T08:32:19.343Z,5.85
2019-01-05T08:33:19.491Z,5.86
2019-01-05T08:34:19.637Z,5.83
2019-01-05T08:35:19.783Z,5.85
2019-01-05T08:36:19.930Z,5.92
2019-01-05T08:37:20.076Z,5.96
2019-01-05T08:38:20.225Z,6.10
2019-01-05T08:39:20.371Z,6.03
2019-01-05T08:40:20.518Z,6.04
2019-01-05T08:41:20.664Z,6.10
2019-01-05T08:42:20.809Z,6.09
2019-01-05T08:43:20.955Z,6.06
2019-01-05T08:44:21.102Z,6.14
2019-01-05T08:45:21.249Z,6.19
2019-01-05T08:46:21.401Z,6.22
2019-01-05T08:47:21.542Z,6.13
2019-01-05T08:48:21.687Z,6.11
2019-01-05T08:49:21.834Z,6.21
2019-01-05T08:50:21.977Z,6.22
2019-01-05T08:51:22.128Z,6.29
2019-01-05T08:52:22.272Z,6.26
2019-01-05T08:53:22.421Z,6.28
2019-01-05T08:54:22.566Z,6.29
2019-01-05T08:55:22.710Z,6.33
2019-01-05T08:56:22.858Z,6.30
2019-01-05T08:57:23.004Z,6.26
2019-01-05T08:58:23.152Z,6.30
2019-01-05T08:59:23.301Z,6.33
2019-01-05T09:00:23.445Z,6.33
2019-01-05T09:01:23.591Z,6.43
2019-01-05T09:02:23.818Z,6.48
2019-01-05T09:03:23.886Z,6.63
2019-01-05T09:04:24.035Z,6.54
2019-01-05T09:05:24.179Z,6.66
2019-01-05T09:06:24.326Z,6.69
2019-01-05T09:07:24.472Z,6.68
2019-01-05T09:08:24.623Z,6.63
2019-01-05T09:09:24.766Z,6.62
2019-01-05T09:10:24.914Z,6.73
2019-01-05T09:11:25.065Z,6.69
2019-01-05T09:12:25.218Z,6.66
2019-01-05T09:13:25.356Z,6.72
2019-01-05T09:14:25.503Z,6.83
2019-01-05T09:15:25.655Z,6.76
2019-01-05T09:16:25.799Z,6.59
2019-01-05T09:17:25.945Z,6.63
2019-01-05T09:18:26.094Z,6.76
2019-01-05T09:19:26.240Z,6.72
2019-01-05T09:20:26.384Z,6.81
2019-01-05T09:21:26.531Z,6.86
2019-01-05T09:22:26.676Z,6.86
2019-01-05T09:23:26.824Z,6.87
2019-01-05T09:24:26.975Z,6.91
2019-01-05T09:25:27.120Z,6.91
2019-01-05T09:26:27.267Z,6.97
2019-01-05T09:27:27.415Z,7.05
2019-01-05T09:28:27.567Z,7.07
2019-01-05T09:29:27.712Z,7.02
2019-01-05T09:30:27.857Z,6.95
2019-01-05T09:31:28.008Z,7.01
2019-01-05T09:32:28.155Z,7.02
2019-01-05T09:33:28.303Z,7.07
2019-01-05T09:34:28.451Z,7.12
2019-01-05T09:35:28.596Z,7.16
2019-01-05T09:36:28.741Z,7.05
2019-01-05T09:37:28.903Z,7.08
2019-01-05T09:38:29.039Z,7.16
2019-01-05T09:39:29.185Z,7.17
2019-01-05T09:40:29.331Z,7.15
2019-01-05T09:41:29.480Z,7.13
2019-01-05T09:42:29.626Z,7.22
2019-01-05T09:43:29.774Z,7.22
2019-01-05T09:44:29.915Z,7.23
2019-01-05T09:45:30.059Z,7.27
2019-01-05T09:46:30.208Z,7.34
2019-01-05T09:47:30.353Z,7.23
2019-01-05T09:48:30.503Z,7.24
2019-01-05T09:49:30.651Z,7.29
2019-01-05T09:50:30.797Z,7.23
2019-01-05T09:51:30.943Z,7.29
2019-01-05T09:52:31.092Z,7.31
2019-01-05T09:53:31.237Z,7.29
2019-01-05T09:54:31.384Z,7.32
2019-01-05T09:55:31.532Z,7.34
2019-01-05T09:56:31.678Z,7.37
2019-01-05T09:57:31.827Z,7.37
2019-01-05T09:58:31.975Z,7.35
2019-01-05T09:59:32.122Z,7.44
2019-01-05T10:00:32.269Z,7.34
2019-01-05T10:01:32.417Z,7.34
2019-01-05T10:02:32.564Z,7.40
2019-01-05T10:03:32.714Z,7.41
2019-01-05T10:04:32.861Z,7.37
2019-01-05T10:05:33.011Z,7.35
2019-01-05T10:06:33.154Z,7.29
2019-01-05T10:07:33.296Z,7.32
2019-01-05T10:08:33.444Z,7.47
2019-01-05T10:09:33.590Z,7.38
2019-01-05T10:10:33.737Z,7.47
2019-01-05T10:11:33.901Z,7.56
2019-01-05T10:12:34.051Z,7.45
2019-01-05T10:13:34.203Z,7.58
2019-01-05T10:14:34.347Z,7.56
2019-01-05T10:15:34.495Z,7.34
2019-01-05T10:16:34.642Z,7.45
2019-01-05T10:17:34.789Z,7.44
2019-01-05T10:18:34.937Z,7.41
2019-01-05T10:19:35.085Z,7.44
2019-01-05T10:20:35.230Z,7.44
2019-01-05T10:21:35.380Z,7.40
2019-01-05T10:22:35.526Z,7.38
2019-01-05T10:23:35.678Z,7.50
2019-01-05T10:24:35.823Z,7.58
2019-01-05T10:25:35.970Z,7.47
2019-01-05T10:26:36.169Z,7.50
2019-01-05T10:27:36.264Z,7.45
2019-01-05T10:28:36.411Z,7.52
2019-01-05T10:29:36.561Z,7.55
2019-01-05T10:30:36.709Z,7.60
2019-01-05T10:31:36.854Z,7.63
2019-01-05T10:32:37.005Z,7.67
2019-01-05T10:33:37.150Z,7.77
2019-01-05T10:34:37.296Z,7.72
2019-01-05T10:35:37.443Z,7.71
2019-01-05T10:36:37.590Z,7.58
2019-01-05T10:37:37.737Z,7.66
2019-01-05T10:38:37.887Z,7.72
2019-01-05T10:39:38.033Z,7.78
2019-01-05T10:40:38.181Z,7.81
2019-01-05T10:41:38.329Z,7.69
2019-01-05T10:42:38.474Z,7.71
2019-01-05T10:43:38.625Z,7.72
2019-01-05T10:44:38.769Z,7.71
2019-01-05T10:45:38.917Z,7.71
2019-01-05T10:46:39.066Z,7.71
2019-01-05T10:47:39.212Z,7.71
2019-01-05T10:48:39.358Z,7.67
2019-01-05T10:49:39.513Z,7.74
2019-01-05T10:50:39.660Z,7.71
2019-01-05T10:51:39.806Z,7.75
2019-01-05T10:52:39.955Z,7.71
2019-01-05T10:53:40.105Z,7.69
2019-01-05T10:54:40.253Z,7.74
2019-01-05T10:55:40.399Z,7.79
2019-01-05T10:56:40.547Z,7.71
2019-01-05T10:57:40.694Z,7.79
2019-01-05T10:58:40.839Z,7.78
2019-01-05T10:59:40.990Z,7.87
2019-01-05T11:00:41.133Z,7.82
2019-01-05T11:01:41.284Z,7.78
2019-01-05T11:02:41.429Z,7.81
2019-01-05T11:03:41.576Z,7.74
2019-01-05T11:04:41.723Z,7.84
2019-01-05T11:05:41.873Z,7.81
2019-01-05T11:06:42.017Z,7.90
2019-01-05T11:07:42.168Z,7.81
2019-01-05T11:08:42.314Z,7.84
2019-01-05T11:09:42.463Z,7.84
2019-01-05T11:10:42.613Z,7.89
2019-01-05T11:11:42.761Z,7.82
2019-01-05T11:12:42.907Z,7.85
2019-01-05T11:13:43.051Z,7.90
2019-01-05T11:14:43.200Z,7.93
2019-01-05T11:15:43.347Z,7.93
2019-01-05T11:16:43.494Z,8.03
2019-01-05T11:17:43.640Z,7.97
2019-01-05T11:18:43.787Z,8.03
2019-01-05T11:19:43.933Z,8.02
2019-01-05T11:20:44.086Z,7.94
2019-01-05T11:21:44.230Z,7.96
2019-01-05T11:22:44.375Z,7.97
2019-01-05T11:23:44.526Z,8.02
2019-01-05T11:24:44.673Z,7.99
2019-01-05T11:25:44.816Z,7.99
2019-01-05T11:26:44.961Z,7.97
2019-01-05T11:27:45.117Z,7.99
2019-01-05T11:28:45.265Z,8.02
2019-01-05T11:29:45.405Z,8.03
2019-01-05T11:30:45.550Z,7.97
2019-01-05T11:31:45.696Z,7.94
2019-01-05T11:32:45.857Z,8.07
2019-01-05T11:33:45.993Z,8.08
2019-01-05T11:34:46.145Z,7.97
2019-01-05T11:35:46.294Z,8.02
2019-01-05T11:36:46.441Z,8.04
2019-01-05T11:37:46.589Z,8.03
2019-01-05T11:38:46.741Z,8.00
2019-01-05T11:39:46.882Z,8.02
2019-01-05T11:40:47.031Z,8.12
2019-01-05T11:41:47.179Z,8.20
2019-01-05T11:42:47.326Z,8.12
2019-01-05T11:43:47.474Z,8.10
2019-01-05T11:44:47.620Z,8.21
2019-01-05T11:45:47.777Z,8.17
2019-01-05T11:46:47.917Z,8.15
2019-01-05T11:47:48.063Z,8.15
2019-01-05T11:48:48.209Z,8.11
2019-01-05T11:49:48.357Z,8.20
2019-01-05T11:50:48.507Z,8.14
2019-01-05T11:51:48.652Z,8.07
2019-01-05T11:52:48.798Z,8.03
2019-01-05T11:53:48.946Z,8.02
2019-01-05T11:54:49.100Z,8.07
2019-01-05T11:55:49.237Z,8.02
2019-01-05T11:56:49.385Z,8.10
2019-01-05T11:57:49.530Z,8.04
2019-01-05T11:58:49.687Z,8.02
2019-01-05T11:59:49.834Z,8.14
2019-01-05T12:00:49.982Z,8.22
2019-01-05T12:01:50.130Z,8.04
2019-01-05T12:02:50.281Z,8.08
2019-01-05T12:03:50.441Z,8.00
2019-01-05T12:04:50.576Z,8.08
2019-01-05T12:05:50.724Z,8.02
2019-01-05T12:06:50.888Z,8.04
2019-01-05T12:07:51.018Z,8.11
2019-01-05T12:08:51.166Z,8.08
2019-01-05T12:09:51.318Z,8.04
2019-01-05T12:10:51.473Z,8.11
2019-01-05T12:11:51.611Z,8.04
2019-01-05T12:12:51.759Z,8.03
2019-01-05T12:13:51.909Z,8.03
2019-01-05T12:14:52.052Z,8.11
2019-01-05T12:15:52.201Z,8.03
2019-01-05T12:16:52.350Z,8.14
2019-01-05T12:17:52.496Z,8.10
2019-01-05T12:18:52.643Z,8.10
2019-01-05T12:19:52.804Z,8.12
2019-01-05T12:20:52.952Z,8.10
2019-01-05T12:21:53.100Z,8.03
2019-01-05T12:22:53.245Z,8.04
2019-01-05T12:23:53.390Z,7.99
2019-01-05T12:24:53.535Z,8.00
2019-01-05T12:25:53.685Z,8.02
2019-01-05T12:26:53.833Z,7.99
2019-01-05T12:27:53.978Z,8.07
2019-01-05T12:28:54.126Z,8.10
2019-01-05T12:29:54.272Z,8.10
2019-01-05T12:30:54.420Z,7.99
2019-01-05T12:31:54.564Z,8.08
2019-01-05T12:32:54.716Z,7.97
2019-01-05T12:33:54.866Z,8.02
2019-01-05T12:34:55.012Z,7.96
2019-01-05T12:35:55.157Z,7.96
2019-01-05T12:36:55.308Z,7.94
2019-01-05T12:37:55.455Z,8.04
2019-01-05T12:38:55.599Z,8.03
2019-01-05T12:39:55.745Z,7.96
2019-01-05T12:40:55.890Z,7.92
2019-01-05T12:41:56.039Z,7.93
2019-01-05T12:42:56.185Z,7.99
2019-01-05T12:43:56.331Z,7.94
2019-01-05T12:44:56.479Z,8.08
2019-01-05T12:45:56.632Z,7.99
2019-01-05T12:46:56.780Z,8.03
2019-01-05T12:47:56.939Z,8.00
2019-01-05T12:48:57.097Z,8.02
2019-01-05T12:49:57.244Z,7.96
2019-01-05T12:50:57.391Z,7.89
2019-01-05T12:51:57.538Z,7.97
2019-01-05T12:52:57.691Z,7.96
2019-01-05T12:53:57.838Z,8.00
2019-01-05T12:54:57.985Z,7.94
2019-01-05T12:55:58.136Z,7.99
2019-01-05T12:56:58.308Z,8.03
2019-01-05T12:57:58.434Z,8.03
2019-01-05T12:58:58.578Z,7.94
2019-01-05T12:59:58.757Z,8.00
2019-01-05T13:00:58.878Z,8.03
2019-01-05T13:01:59.025Z,8.03
2019-01-05T13:02:59.172Z,8.10
2019-01-05T13:03:59.316Z,8.10
2019-01-05T13:04:59.465Z,8.07
2019-01-05T13:05:59.618Z,8.07
2019-01-05T13:06:59.763Z,8.07
2019-01-05T13:07:59.909Z,8.08
2019-01-05T13:09:00.059Z,8.04
2019-01-05T13:10:00.243Z,8.00
2019-01-05T13:11:00.355Z,7.96
2019-01-05T13:12:00.501Z,7.94
2019-01-05T13:13:00.647Z,8.04
2019-01-05T13:14:00.796Z,7.99
2019-01-05T13:15:00.945Z,8.04
2019-01-05T13:16:01.091Z,7.97
2019-01-05T13:17:01.266Z,7.97
2019-01-05T13:18:01.386Z,7.97
2019-01-05T13:19:01.537Z,8.02
2019-01-05T13:20:01.693Z,8.03